Time;durP1;ratioP1;P1;durP2;ratioP2;P2;SDS_P1;SDS_P2;PMS_P1;PMS_P2;Temp;Humidity;BMP_temperature;BMP_pressure;BME280_temperature;BME280_humidity;BME280_pressure;Samples;Min_cycle;Max_cycle;Signal;HPM_P1;HPM_P2
2021/04/18 00:02:49;;;;;;;6.20;5.03;;;;;;;8.10;56.83;100527.84;5092863;28;20066;-78
2021/04/18 00:05:53;;;;;;;7.90;5.00;;;;;;;8.07;56.79;100528.91;5086031;28;20039;-77
2021/04/18 00:08:58;;;;;;;7.03;5.63;;;;;;;8.09;56.90;100521.63;5093930;28;20379;-79
2021/04/18 00:12:03;;;;;;;6.88;5.47;;;;;;;8.07;56.80;100512.03;5093969;28;20055;-77
2021/04/18 00:15:13;;;;;;;9.27;5.55;;;;;;;8.09;56.60;100510.06;5101815;28;20047;-77
2021/04/18 00:18:17;;;;;;;7.97;5.85;;;;;;;8.11;56.44;100524.19;5105028;28;20055;-78
2021/04/18 00:21:22;;;;;;;6.82;5.32;;;;;;;8.02;56.44;100509.69;5100736;28;20048;-77
2021/04/18 00:24:26;;;;;;;7.32;5.50;;;;;;;8.07;56.52;100510.22;5078374;28;20047;-76
2021/04/18 00:27:31;;;;;;;8.73;5.65;;;;;;;8.03;56.82;100502.50;5076739;28;20058;-79
2021/04/18 00:30:35;;;;;;;7.22;5.15;;;;;;;8.05;56.36;100500.59;5093554;28;20055;-77
2021/04/18 00:33:40;;;;;;;6.40;4.55;;;;;;;8.06;56.32;100503.13;5092630;28;20055;-76
2021/04/18 00:36:45;;;;;;;7.38;5.20;;;;;;;7.99;56.69;100504.56;5078810;28;20052;-76
2021/04/18 00:39:49;;;;;;;7.55;5.63;;;;;;;8.03;56.44;100502.50;5073487;28;20047;-76
2021/04/18 00:42:54;;;;;;;7.22;5.20;;;;;;;8.09;56.32;100507.41;5075251;28;20403;-78
2021/04/18 00:45:58;;;;;;;9.02;5.93;;;;;;;8.11;56.81;100517.00;5088924;28;20051;-77
2021/04/18 00:49:02;;;;;;;8.55;5.78;;;;;;;8.16;56.82;100506.81;5084882;28;20400;-77
2021/04/18 00:52:06;;;;;;;5.97;4.78;;;;;;;8.25;56.84;100510.63;5077138;28;20052;-77
2021/04/18 00:55:11;;;;;;;6.88;4.90;;;;;;;8.31;56.48;100510.19;5076274;28;20514;-77
2021/04/18 00:58:16;;;;;;;7.35;5.22;;;;;;;8.35;55.88;100508.97;5094828;28;20047;-78
2021/04/18 01:01:20;;;;;;;7.57;5.40;;;;;;;8.33;56.08;100498.41;5096563;28;20514;-77
2021/04/18 01:04:25;;;;;;;6.30;4.70;;;;;;;8.37;56.15;100505.22;5093090;28;20051;-79
2021/04/18 01:07:29;;;;;;;7.15;5.07;;;;;;;8.34;56.52;100502.81;5095007;28;20063;-77
2021/04/18 01:10:34;;;;;;;7.93;5.38;;;;;;;8.27;56.44;100504.22;5081275;28;20056;-77
2021/04/18 01:13:39;;;;;;;8.60;5.68;;;;;;;8.20;56.52;100507.44;5076677;28;20059;-77
2021/04/18 01:16:46;;;;;;;9.88;4.95;;;;;;;8.24;56.40;100503.56;5076937;28;20048;-76
2021/04/18 01:19:52;;;;;;;8.35;5.03;;;;;;;8.23;56.52;100500.03;5076691;28;20051;-76
2021/04/18 01:22:56;;;;;;;6.25;5.60;;;;;;;8.28;56.02;100497.91;5075747;28;20047;-78
2021/04/18 01:26:10;;;;;;;7.18;5.35;;;;;;;8.22;56.53;100492.97;5095073;28;20051;-79
2021/04/18 01:29:15;;;;;;;6.88;5.57;;;;;;;8.20;56.25;100492.25;5087413;28;20047;-78
2021/04/18 01:32:21;;;;;;;8.10;5.18;;;;;;;8.29;56.55;100496.09;5087986;28;20051;-77
2021/04/18 01:35:26;;;;;;;7.43;5.18;;;;;;;8.25;56.61;100498.09;5076015;28;20044;-77
2021/04/18 01:38:31;;;;;;;6.30;5.28;;;;;;;8.23;56.75;100497.38;5076272;28;20043;-77
2021/04/18 01:41:35;;;;;;;5.93;5.05;;;;;;;8.24;56.75;100491.06;5086101;28;20043;-78
2021/04/18 01:44:43;;;;;;;6.13;4.82;;;;;;;8.28;57.15;100495.22;5091041;28;20407;-77
2021/04/18 01:47:47;;;;;;;8.23;5.25;;;;;;;8.36;56.62;100494.66;5092903;28;20043;-78
2021/04/18 01:50:52;;;;;;;7.43;5.00;;;;;;;8.37;56.82;100496.34;5075192;28;20044;-76
2021/04/18 01:53:57;;;;;;;7.88;5.00;;;;;;;8.36;57.13;100503.53;5094543;28;20379;-77
2021/04/18 01:57:01;;;;;;;8.43;5.07;;;;;;;8.22;58.26;100500.19;5096197;28;20055;-78
2021/04/18 02:00:10;;;;;;;7.57;4.70;;;;;;;8.20;58.40;100499.41;5091509;28;20063;-76
2021/04/18 02:03:18;;;;;;;6.80;4.78;;;;;;;8.24;58.73;100492.88;5075750;28;20055;-76
2021/04/18 02:06:24;;;;;;;8.20;4.95;;;;;;;8.31;58.32;100494.16;5081776;28;20047;-78
2021/04/18 02:09:38;;;;;;;;;;;;;;;8.28;59.07;100497.06;5075896;28;20059;-79
2021/04/18 02:12:44;;;;;;;8.30;5.72;;;;;;;8.34;59.07;100492.09;5089236;28;20272;-76
2021/04/18 02:15:52;;;;;;;7.60;5.35;;;;;;;8.40;60.08;100496.97;5094457;28;20067;-77
2021/04/18 02:18:56;;;;;;;6.85;5.40;;;;;;;8.46;60.46;100504.53;5078855;28;20043;-77
2021/04/18 02:22:07;;;;;;;8.15;5.72;;;;;;;8.48;60.05;100497.25;5074636;28;20060;-78
2021/04/18 02:25:17;;;;;;;7.50;5.80;;;;;;;8.49;60.76;100490.91;5065794;28;20044;-78
2021/04/18 02:28:22;;;;;;;7.03;6.30;;;;;;;8.54;60.76;100495.06;5087357;28;20517;-78
2021/04/18 02:31:31;;;;;;;8.07;5.85;;;;;;;8.54;61.17;100490.56;5076117;28;20043;-77
2021/04/18 02:34:35;;;;;;;7.18;5.75;;;;;;;8.55;60.93;100486.06;5081581;28;20043;-77
2021/04/18 02:37:39;;;;;;;7.20;5.10;;;;;;;8.58;60.79;100501.88;5079569;28;20047;-78
2021/04/18 02:40:43;;;;;;;5.78;5.18;;;;;;;8.59;60.82;100485.72;5095440;28;20043;-78
2021/04/18 02:43:48;;;;;;;6.93;6.03;;;;;;;8.48;61.94;100491.91;5095320;28;20051;-79
2021/04/18 02:46:57;;;;;;;7.63;6.10;;;;;;;8.50;61.18;100494.44;5085310;28;20548;-76
2021/04/18 02:50:05;;;;;;;7.90;5.25;;;;;;;8.48;60.45;100491.91;5082041;28;20055;-77
2021/04/18 02:53:10;;;;;;;8.10;5.90;;;;;;;8.43;60.42;100483.38;5083855;28;20059;-77
2021/04/18 02:56:15;;;;;;;8.70;5.47;;;;;;;8.43;59.88;100487.84;5094381;28;20055;-76
2021/04/18 02:59:31;;;;;;;7.65;5.28;;;;;;;8.44;59.48;100479.69;5080269;28;20060;-78
2021/04/18 03:02:36;;;;;;;7.22;6.18;;;;;;;8.46;59.04;100476.94;5073819;28;20051;-78
2021/04/18 03:05:41;;;;;;;7.57;5.13;;;;;;;8.41;57.97;100473.75;5075730;28;20051;-77
2021/04/18 03:08:45;;;;;;;6.45;5.55;;;;;;;8.43;57.40;100475.34;5080379;28;20043;-77
2021/04/18 03:11:49;;;;;;;8.43;5.18;;;;;;;8.40;56.87;100480.91;5078923;28;20419;-77
2021/04/18 03:15:15;;;;;;;7.60;5.40;;;;;;;8.36;56.90;100470.59;5074061;28;20079;-76
2021/04/18 03:18:24;;;;;;;8.05;5.90;;;;;;;8.16;57.73;100472.06;5092467;28;20051;-77
2021/04/18 03:21:30;;;;;;;9.57;5.97;;;;;;;8.13;58.00;100480.31;5093264;28;20047;-77
2021/04/18 03:24:38;;;;;;;7.82;5.80;;;;;;;8.05;58.28;100477.38;5094176;28;20051;-76
2021/04/18 03:27:44;;;;;;;8.18;6.53;;;;;;;8.01;58.73;100472.38;5083607;28;20043;-79
2021/04/18 03:30:56;;;;;;;10.80;6.20;;;;;;;7.95;59.15;100486.22;5087102;28;20047;-76
2021/04/18 03:34:03;;;;;;;7.72;6.18;;;;;;;7.92;59.55;100486.44;5087570;28;20055;-77
2021/04/18 03:37:09;;;;;;;9.02;6.18;;;;;;;7.94;59.79;100490.69;5087273;28;20043;-76
2021/04/18 03:40:17;;;;;;;8.68;6.50;;;;;;;7.74;60.46;100496.66;5094558;28;20051;-78
2021/04/18 03:43:21;;;;;;;8.73;6.95;;;;;;;7.61;61.03;100494.03;5093476;28;20051;-76
2021/04/18 03:46:26;;;;;;;11.50;7.38;;;;;;;7.44;61.56;100491.75;5094149;28;20059;-77
2021/04/18 03:49:32;;;;;;;8.93;7.10;;;;;;;7.41;61.73;100494.63;5093403;28;20398;-79
2021/04/18 03:52:49;;;;;;;9.15;6.65;;;;;;;7.39;61.39;100490.38;5082444;28;20047;-76
2021/04/18 03:55:55;;;;;;;7.78;5.95;;;;;;;7.40;61.46;100492.09;5074058;28;20494;-77
2021/04/18 03:59:05;;;;;;;10.63;6.85;;;;;;;7.33;61.54;100497.03;5081374;28;20058;-76
2021/04/18 04:02:10;;;;;;;8.77;6.50;;;;;;;7.33;61.74;100483.69;5093411;28;20055;-76
2021/04/18 04:05:16;;;;;;;8.52;6.25;;;;;;;7.33;61.55;100488.16;5083222;28;20056;-77
2021/04/18 04:08:21;;;;;;;7.88;6.55;;;;;;;7.38;61.87;100491.34;5072885;28;20047;-76
2021/04/18 04:11:25;;;;;;;8.25;6.15;;;;;;;7.38;61.73;100494.84;5081603;28;20499;-76
2021/04/18 04:14:30;;;;;;;6.78;5.50;;;;;;;7.33;61.66;100494.34;5083805;28;20407;-76
2021/04/18 04:17:39;;;;;;;8.05;5.85;;;;;;;7.32;62.25;100494.44;5096121;28;20047;-76
2021/04/18 04:21:01;;;;;;;6.85;5.50;;;;;;;7.33;62.14;100496.16;5085464;28;20064;-77
2021/04/18 04:24:31;;;;;;;8.57;6.13;;;;;;;7.35;62.56;100500.44;5077654;28;20063;-78
2021/04/18 04:27:35;;;;;;;7.85;6.28;;;;;;;7.35;63.11;100502.25;5077585;28;20048;-77
2021/04/18 04:30:39;;;;;;;8.13;6.18;;;;;;;7.34;62.79;100497.84;5077475;28;20387;-76
2021/04/18 04:33:44;;;;;;;6.82;5.95;;;;;;;7.33;63.15;100505.03;5077174;28;20395;-77
2021/04/18 04:36:48;;;;;;;8.88;6.35;;;;;;;7.31;63.64;100506.94;5089005;28;20055;-78
2021/04/18 04:39:52;;;;;;;9.93;6.93;;;;;;;7.33;64.31;100515.72;5084190;28;20063;-76
2021/04/18 04:42:57;;;;;;;8.50;6.78;;;;;;;7.29;64.81;100516.88;5090212;28;20048;-78
2021/04/18 04:46:01;;;;;;;8.32;6.38;;;;;;;7.23;65.21;100526.19;5077266;28;20510;-77
2021/04/18 04:49:05;;;;;;;12.80;7.72;;;;;;;7.31;65.50;100512.28;5077011;28;20079;-79
2021/04/18 04:52:10;;;;;;;6.97;5.78;;;;;;;7.40;65.53;100526.81;5080909;28;20067;-79
2021/04/18 04:55:15;;;;;;;10.32;6.95;;;;;;;7.47;65.55;100526.25;5076440;28;20047;-77
2021/04/18 04:58:19;;;;;;;7.57;6.78;;;;;;;7.57;65.54;100537.13;5076623;28;20047;-77
2021/04/18 05:01:23;;;;;;;8.35;6.82;;;;;;;7.60;65.41;100532.41;5075480;28;20051;-77
2021/04/18 05:04:28;;;;;;;10.07;6.60;;;;;;;7.70;65.36;100522.75;5077160;28;20051;-76
2021/04/18 05:07:32;;;;;;;11.25;6.70;;;;;;;7.77;65.17;100518.69;5076844;28;20055;-77
2021/04/18 05:10:36;;;;;;;9.40;6.05;;;;;;;7.87;65.26;100526.88;5076758;28;20475;-79
2021/04/18 05:13:41;;;;;;;16.38;6.60;;;;;;;7.92;64.94;100532.72;5087344;28;20070;-76
2021/04/18 05:16:46;;;;;;;11.18;6.15;;;;;;;7.95;65.15;100534.31;5092422;28;20047;-77
2021/04/18 05:19:52;;;;;;;8.35;6.38;;;;;;;8.06;64.29;100529.00;5089490;28;20052;-76
2021/04/18 05:22:56;;;;;;;9.38;6.07;;;;;;;8.10;64.04;100531.34;5076538;28;20055;-78
2021/04/18 05:26:00;;;;;;;8.23;6.82;;;;;;;8.10;63.73;100538.53;5076376;28;20074;-77
2021/04/18 05:29:05;;;;;;;10.40;6.07;;;;;;;8.01;63.67;100534.72;5075772;28;20391;-78
2021/04/18 05:32:09;;;;;;;10.38;6.25;;;;;;;8.07;64.14;100544.97;5077846;28;20047;-77
2021/04/18 05:35:14;;;;;;;7.18;6.20;;;;;;;8.16;63.57;100552.28;5084605;28;20063;-78
2021/04/18 05:38:18;;;;;;;7.80;6.47;;;;;;;8.14;63.52;100543.53;5076466;28;20067;-76
2021/04/18 05:41:22;;;;;;;7.57;6.72;;;;;;;8.11;63.20;100543.75;5076131;28;20048;-76
2021/04/18 05:44:26;;;;;;;9.68;6.45;;;;;;;8.19;63.11;100548.53;5095549;28;20495;-77
2021/04/18 05:47:31;;;;;;;10.75;6.57;;;;;;;8.07;63.64;100555.66;5096374;28;20062;-77
2021/04/18 05:50:35;;;;;;;7.13;6.10;;;;;;;7.98;63.53;100558.13;5096316;28;20043;-75
2021/04/18 05:53:40;;;;;;;8.25;6.50;;;;;;;7.95;64.11;100556.53;5087474;28;20043;-78
2021/04/18 05:56:44;;;;;;;11.73;6.45;;;;;;;8.01;64.05;100563.25;5088084;28;20039;-79
2021/04/18 05:59:49;;;;;;;8.00;6.40;;;;;;;8.14;63.98;100562.25;5095816;28;20044;-78
2021/04/18 06:02:53;;;;;;;47.45;35.92;;;;;;;8.23;63.79;100560.69;5095912;28;20055;-77
2021/04/18 06:05:57;;;;;;;102.60;79.85;;;;;;;8.29;63.05;100562.94;5095321;28;20047;-77
2021/04/18 06:09:03;;;;;;;14.88;10.38;;;;;;;8.27;62.64;100562.22;5096067;28;20032;-77
2021/04/18 06:12:07;;;;;;;9.73;6.38;;;;;;;8.28;62.60;100562.09;5096050;28;20047;-78
2021/04/18 06:15:13;;;;;;;9.25;6.28;;;;;;;8.32;63.06;100557.38;5069582;28;20142;-77
2021/04/18 06:18:18;;;;;;;8.80;6.60;;;;;;;8.26;63.55;100574.72;5092621;28;20043;-76
2021/04/18 06:21:27;;;;;;;10.80;6.63;;;;;;;8.34;63.04;100568.81;5084234;28;20387;-77
2021/04/18 06:24:32;;;;;;;12.85;7.00;;;;;;;8.38;63.28;100568.47;5081097;28;20047;-76
2021/04/18 06:27:36;;;;;;;9.40;6.78;;;;;;;8.47;63.25;100575.78;5089373;28;20055;-77
2021/04/18 06:30:41;;;;;;;9.13;6.93;;;;;;;8.61;63.16;100584.59;5084929;28;20395;-77
2021/04/18 06:33:46;;;;;;;10.07;6.90;;;;;;;8.77;63.14;100590.47;5080753;28;20055;-78
2021/04/18 06:36:50;;;;;;;190.27;127.25;;;;;;;8.91;63.01;100592.94;5081825;28;20482;-79
2021/04/18 06:39:55;;;;;;;55.53;37.88;;;;;;;9.05;62.48;100595.41;5080806;28;20049;-77
2021/04/18 06:43:03;;;;;;;10.50;8.75;;;;;;;9.16;62.33;100598.09;5081197;28;20066;-78
2021/04/18 06:46:07;;;;;;;8.63;6.93;;;;;;;9.26;62.17;100593.72;5095375;28;20047;-76
2021/04/18 06:49:14;;;;;;;7.70;6.30;;;;;;;9.38;61.94;100590.06;5095461;28;20043;-78
2021/04/18 06:52:18;;;;;;;8.40;6.57;;;;;;;9.49;61.60;100591.91;5095459;28;20486;-78
2021/04/18 06:55:31;;;;;;;11.70;7.88;;;;;;;9.59;60.95;100591.06;5092367;28;20055;-80
2021/04/18 06:58:35;;;;;;;9.50;7.60;;;;;;;9.74;60.36;100589.84;5080709;28;20047;-79
2021/04/18 07:01:41;;;;;;;10.13;7.13;;;;;;;9.97;59.64;100592.47;5053374;28;20044;-79
2021/04/18 07:05:00;;;;;;;9.77;7.40;;;;;;;10.15;59.51;100585.63;5053996;28;20048;-80
2021/04/18 07:08:22;;;;;;;10.98;7.57;;;;;;;10.22;59.30;100578.81;5051291;28;20052;-79
2021/04/18 07:11:26;;;;;;;10.05;7.68;;;;;;;10.32;59.01;100585.09;5054750;28;20048;-79
2021/04/18 07:14:33;;;;;;;8.57;7.65;;;;;;;10.49;58.74;100584.56;5054287;28;20056;-79
2021/04/18 07:17:48;;;;;;;11.75;8.15;;;;;;;11.33;57.09;100583.56;5049748;28;20064;-79
2021/04/18 07:20:54;;;;;;;9.40;7.57;;;;;;;12.30;55.03;100581.03;5054221;28;20047;-76
2021/04/18 07:24:07;;;;;;;12.75;7.32;;;;;;;13.14;51.13;100580.31;5053270;28;20052;-74
2021/04/18 07:27:11;;;;;;;10.90;8.00;;;;;;;12.99;52.11;100573.66;5052171;28;20040;-75
2021/04/18 07:30:19;;;;;;;9.25;7.32;;;;;;;12.89;52.54;100578.19;5052717;28;20040;-78
2021/04/18 07:34:19;;;;;;;10.55;7.40;;;;;;;12.41;54.21;100580.94;5051388;28;20056;-75
2021/04/18 07:37:26;;;;;;;9.93;8.75;;;;;;;11.76;56.44;100589.56;5027783;28;20044;-75
2021/04/18 07:40:31;;;;;;;11.55;8.50;;;;;;;11.52;58.21;100592.56;5027517;28;20077;-74
2021/04/18 07:43:35;;;;;;;11.45;10.13;;;;;;;11.44;58.70;100596.91;5027210;28;20049;-74
2021/04/18 07:46:39;;;;;;;9.98;8.23;;;;;;;11.46;59.13;100595.78;5019301;28;20045;-75
2021/04/18 07:49:44;;;;;;;12.75;8.98;;;;;;;11.33;60.13;100588.94;5030384;28;20477;-78
2021/04/18 07:52:49;;;;;;;12.45;9.38;;;;;;;11.30;60.57;100595.44;5027067;28;20048;-75
2021/04/18 07:55:54;;;;;;;10.85;9.75;;;;;;;11.49;60.70;100592.81;5029179;28;20072;-74
2021/04/18 07:58:58;;;;;;;10.45;9.32;;;;;;;11.82;59.80;100598.94;5030863;28;20144;-77
2021/04/18 08:02:03;;;;;;;12.05;10.15;;;;;;;12.01;59.36;100599.84;5017986;28;20141;-75
2021/04/18 08:05:10;;;;;;;13.57;9.52;;;;;;;12.10;59.01;100600.84;5017638;28;20176;-77
2021/04/18 08:08:15;;;;;;;10.80;9.63;;;;;;;12.04;59.29;100602.25;5046093;28;20060;-79
2021/04/18 08:11:23;;;;;;;11.63;10.02;;;;;;;11.82;59.51;100604.31;5050372;28;20052;-79
2021/04/18 08:14:27;;;;;;;13.85;10.25;;;;;;;11.84;59.47;100608.56;5050506;28;20507;-76
2021/04/18 08:17:32;;;;;;;10.90;9.75;;;;;;;12.05;58.99;100606.63;5043929;28;20052;-74
2021/04/18 08:20:40;;;;;;;11.82;10.50;;;;;;;12.93;56.21;100606.56;5039707;28;20052;-77
2021/04/18 08:23:44;;;;;;;13.93;10.57;;;;;;;13.34;54.24;100608.94;5051447;28;20468;-74
2021/04/18 08:27:11;;;;;;;11.82;10.43;;;;;;;13.32;54.39;100610.06;5052387;28;20051;-75
2021/04/18 08:30:15;;;;;;;121.63;98.53;;;;;;;13.16;54.77;100601.75;5052293;28;20041;-74
2021/04/18 08:33:38;;;;;;;36.65;31.65;;;;;;;12.84;55.48;100610.09;5048129;28;20037;-77
2021/04/18 08:36:47;;;;;;;14.77;13.20;;;;;;;12.81;54.77;100613.13;5033352;28;20037;-74
2021/04/18 08:40:02;;;;;;;14.25;12.25;;;;;;;13.32;53.42;100610.06;5033011;28;20428;-77
2021/04/18 08:43:17;;;;;;;16.30;12.95;;;;;;;13.75;49.74;100614.91;5050529;28;20060;-78
2021/04/18 08:46:23;;;;;;;13.80;11.55;;;;;;;14.18;48.65;100612.41;5050125;28;20052;-79
2021/04/18 08:49:34;;;;;;;13.57;10.85;;;;;;;14.48;47.57;100614.78;5049719;28;20045;-80
2021/04/18 08:52:38;;;;;;;13.82;11.35;;;;;;;14.54;48.34;100619.56;5049242;28;20395;-78
2021/04/18 08:55:56;;;;;;;12.77;11.38;;;;;;;14.53;48.34;100620.59;5053296;28;20048;-77
2021/04/18 08:59:09;;;;;;;16.30;11.15;;;;;;;14.39;48.74;100629.22;5041064;28;20044;-87
2021/04/18 09:02:14;;;;;;;14.52;11.80;;;;;;;14.36;48.90;100629.53;5052978;28;20044;-84
2021/04/18 09:05:21;;;;;;;15.73;11.02;;;;;;;14.71;48.22;100623.28;5041095;28;20060;-77
2021/04/18 09:08:26;;;;;;;12.93;11.63;;;;;;;14.56;48.00;100619.44;5048901;28;20049;-83
2021/04/18 09:11:42;;;;;;;14.70;11.15;;;;;;;14.38;49.00;100630.22;5038754;28;20048;-81
2021/04/18 09:14:50;;;;;;;16.48;12.80;;;;;;;14.23;49.15;100629.00;5056303;28;20044;-87
2021/04/18 09:18:00;;;;;;;15.18;12.18;;;;;;;14.37;49.65;100631.19;5044958;28;20048;-82
2021/04/18 09:21:17;;;;;;;14.25;12.50;;;;;;;14.54;48.22;100622.25;5049650;28;20049;-79
2021/04/18 09:24:22;;;;;;;16.63;12.25;;;;;;;14.64;48.75;100628.44;5052146;28;20507;-78
2021/04/18 09:27:34;;;;;;;14.00;11.98;;;;;;;14.41;48.55;100627.22;5053902;28;20040;-83
2021/04/18 09:30:39;;;;;;;15.15;12.80;;;;;;;14.43;49.37;100627.91;5054313;28;20041;-82
2021/04/18 09:33:43;;;;;;;15.80;12.48;;;;;;;14.42;49.59;100626.19;5054903;28;20411;-77
2021/04/18 09:36:50;;;;;;;15.75;12.52;;;;;;;14.96;48.64;100619.81;5051881;28;20045;-78
2021/04/18 09:40:02;;;;;;;17.27;13.40;;;;;;;15.17;48.02;100624.84;5054030;28;20049;-77
2021/04/18 09:43:08;;;;;;;13.88;12.13;;;;;;;15.74;47.09;100624.25;5050759;28;20052;-76
2021/04/18 09:46:12;;;;;;;14.95;11.75;;;;;;;15.96;46.01;100623.69;5035878;28;20056;-78
2021/04/18 09:49:23;;;;;;;14.80;12.38;;;;;;;16.09;46.16;100623.25;5036182;28;20046;-78
2021/04/18 09:52:38;;;;;;;16.92;12.95;;;;;;;16.11;46.03;100615.78;5045872;28;20392;-81
2021/04/18 09:56:05;;;;;;;16.95;12.45;;;;;;;15.85;46.41;100621.25;5051379;28;20412;-78
2021/04/18 09:59:16;;;;;;;14.40;12.57;;;;;;;15.56;47.69;100620.75;5054345;28;20071;-80
2021/04/18 10:02:21;;;;;;;14.75;12.02;;;;;;;15.20;48.17;100616.44;5093232;28;20047;-77
2021/04/18 10:05:25;;;;;;;15.38;11.82;;;;;;;15.25;47.92;100606.84;5094801;28;20058;-78
2021/04/18 10:08:32;;;;;;;14.38;12.35;;;;;;;15.47;47.21;100617.19;5095208;28;20040;-76
2021/04/18 10:11:37;;;;;;;13.52;12.13;;;;;;;15.68;45.98;100608.66;5090273;28;20043;-77
2021/04/18 10:14:43;;;;;;;14.38;10.98;;;;;;;15.79;44.83;100604.81;5092329;28;20058;-81
2021/04/18 10:17:48;;;;;;;12.90;11.55;;;;;;;15.78;44.58;100611.25;5092012;28;20418;-80
2021/04/18 10:21:20;;;;;;;17.27;14.23;;;;;;;15.65;44.82;100610.84;5075796;28;20048;-78
2021/04/18 10:24:35;;;;;;;13.32;10.63;;;;;;;15.48;46.46;100604.50;5093117;28;20508;-76
2021/04/18 10:27:52;;;;;;;12.02;9.93;;;;;;;15.62;42.43;100606.59;5093876;28;20051;-75
2021/04/18 10:30:56;;;;;;;10.52;9.43;;;;;;;15.60;44.07;100597.81;5077711;28;20478;-75
2021/04/18 10:34:00;;;;;;;12.18;10.93;;;;;;;15.42;46.40;100605.09;5092589;28;20403;-75
2021/04/18 10:37:05;;;;;;;14.65;11.80;;;;;;;15.33;45.13;100597.94;5093978;28;20040;-77
2021/04/18 10:40:09;;;;;;;12.15;10.05;;;;;;;15.25;44.71;100598.75;5092264;28;20033;-76
2021/04/18 10:43:14;;;;;;;14.95;10.65;;;;;;;15.41;44.75;100600.69;5094999;28;20043;-76
2021/04/18 10:46:18;;;;;;;13.60;9.90;;;;;;;15.20;43.01;100601.06;5095030;28;20397;-80
2021/04/18 10:49:24;;;;;;;12.32;9.52;;;;;;;15.40;43.47;100590.88;5094793;28;20399;-80
2021/04/18 10:52:29;;;;;;;12.35;9.23;;;;;;;15.46;42.33;100583.00;5094830;28;20043;-78
2021/04/18 10:55:34;;;;;;;9.93;8.70;;;;;;;15.19;41.69;100584.97;5074633;28;20055;-78
2021/04/18 10:58:38;;;;;;;12.20;8.65;;;;;;;15.22;41.09;100577.41;5074319;28;20043;-78
2021/04/18 11:01:51;;;;;;;10.93;8.63;;;;;;;15.24;41.47;100571.84;5034809;28;20045;-80
2021/04/18 11:04:55;;;;;;;11.70;9.43;;;;;;;15.30;41.80;100576.63;5052737;28;20055;-78
2021/04/18 11:08:00;;;;;;;10.80;9.70;;;;;;;15.16;41.95;100579.91;5054674;28;20044;-80
2021/04/18 11:11:04;;;;;;;11.00;9.90;;;;;;;15.35;42.40;100566.19;5054467;28;20395;-80
2021/04/18 11:14:09;;;;;;;12.27;10.63;;;;;;;15.13;42.61;100572.97;5054532;28;20052;-76
2021/04/18 11:17:14;;;;;;;15.57;11.15;;;;;;;14.73;44.28;100575.34;5053568;28;20056;-80
2021/04/18 11:20:20;;;;;;;12.55;10.85;;;;;;;14.65;44.19;100572.56;5052445;28;20045;-79
2021/04/18 11:23:25;;;;;;;16.45;10.75;;;;;;;14.97;44.21;100568.28;5033926;28;20489;-80
2021/04/18 11:26:30;;;;;;;12.18;10.95;;;;;;;15.25;44.75;100565.44;5034006;28;20072;-81
2021/04/18 11:29:35;;;;;;;11.68;10.55;;;;;;;15.43;45.00;100561.63;5052520;28;20391;-80
2021/04/18 11:32:40;;;;;;;13.95;12.13;;;;;;;15.31;44.76;100568.34;5053095;28;20048;-81
2021/04/18 11:35:45;;;;;;;14.98;11.07;;;;;;;14.97;43.70;100565.59;5050987;28;20059;-81
2021/04/18 11:38:49;;;;;;;27.35;12.43;;;;;;;14.67;44.73;100560.59;5030100;28;20050;-76
2021/04/18 11:41:54;;;;;;;13.27;11.88;;;;;;;14.65;45.11;100564.47;5023863;28;20049;-78
2021/04/18 11:45:02;;;;;;;15.45;10.15;;;;;;;14.45;44.74;100561.06;5005015;28;20068;-77
2021/04/18 11:48:07;;;;;;;11.35;10.15;;;;;;;14.43;44.20;100564.94;5029883;28;20046;-78
2021/04/18 11:51:11;;;;;;;12.38;10.82;;;;;;;14.25;44.85;100559.47;5028879;28;20053;-80
2021/04/18 11:54:15;;;;;;;12.05;10.20;;;;;;;14.27;45.58;100562.88;5029547;28;20045;-78
2021/04/18 11:57:20;;;;;;;15.18;11.27;;;;;;;14.38;45.11;100557.28;5029622;28;20504;-78
2021/04/18 12:00:25;;;;;;;12.40;11.10;;;;;;;14.31;44.19;100559.78;5040980;28;20049;-78
2021/04/18 12:03:29;;;;;;;12.50;11.20;;;;;;;14.35;44.25;100546.78;5050657;28;20053;-78
2021/04/18 12:06:34;;;;;;;12.70;10.88;;;;;;;14.69;44.24;100547.78;5048647;28;20049;-83
2021/04/18 12:09:38;;;;;;;16.27;12.30;;;;;;;14.73;43.99;100541.06;5029104;28;20041;-88
2021/04/18 12:12:42;;;;;;;24.63;22.00;;;;;;;14.90;43.83;100537.50;5051646;28;20475;-79
2021/04/18 12:15:47;;;;;;;22.25;19.05;;;;;;;15.05;44.25;100528.78;5052393;28;20048;-80
2021/04/18 12:18:51;;;;;;;15.38;12.75;;;;;;;15.27;44.85;100525.56;5073649;28;20040;-87
2021/04/18 12:21:55;;;;;;;12.23;10.95;;;;;;;15.01;42.54;100527.44;5070613;28;20036;-78
2021/04/18 12:25:00;;;;;;;14.63;12.38;;;;;;;15.39;42.84;100522.41;5073412;28;20041;-78
2021/04/18 12:28:05;;;;;;;12.50;10.10;;;;;;;15.62;42.61;100520.00;5071591;28;20033;-80
2021/04/18 12:31:10;;;;;;;13.07;11.57;;;;;;;15.77;43.50;100526.50;5071906;28;20029;-78
2021/04/18 12:34:15;;;;;;;13.48;11.68;;;;;;;15.82;42.62;100515.19;5072349;28;20036;-77
2021/04/18 12:37:19;;;;;;;13.18;11.43;;;;;;;15.77;42.97;100526.50;5074249;28;20052;-77
2021/04/18 12:40:24;;;;;;;13.52;10.55;;;;;;;15.47;42.96;100535.16;5077403;28;20040;-78
2021/04/18 12:43:28;;;;;;;11.57;10.35;;;;;;;15.28;41.90;100543.50;5076147;28;20033;-78
2021/04/18 12:46:33;;;;;;;14.20;10.32;;;;;;;15.08;41.78;100540.16;5072335;28;20479;-78
2021/04/18 12:49:38;;;;;;;12.75;8.18;;;;;;;14.87;40.67;100535.09;5074779;28;20041;-78
2021/04/18 12:52:43;;;;;;;9.05;7.55;;;;;;;14.83;41.34;100540.97;5075850;28;20039;-77
2021/04/18 12:55:48;;;;;;;8.80;7.90;;;;;;;14.91;41.01;100536.47;5090944;28;20063;-76
2021/04/18 12:58:53;;;;;;;9.02;8.13;;;;;;;15.10;41.87;100538.13;5094895;28;20031;-78
2021/04/18 13:01:57;;;;;;;10.80;9.15;;;;;;;15.06;42.16;100531.31;5095409;28;20062;-80
2021/04/18 13:05:03;;;;;;;12.02;8.98;;;;;;;14.67;41.52;100530.88;5073936;28;20044;-80
2021/04/18 13:08:08;;;;;;;8.45;7.25;;;;;;;14.43;41.85;100541.47;5070849;28;20095;-79
2021/04/18 13:11:12;;;;;;;9.90;8.15;;;;;;;14.28;42.46;100541.13;5087976;28;20056;-79
2021/04/18 13:14:17;;;;;;;10.00;8.52;;;;;;;14.23;43.17;100545.28;5071462;28;20051;-79
2021/04/18 13:17:21;;;;;;;12.52;10.55;;;;;;;14.12;44.29;100540.13;5072973;28;20039;-76
2021/04/18 13:20:26;;;;;;;10.00;8.80;;;;;;;14.11;45.04;100543.81;5072932;28;20037;-81
2021/04/18 13:23:30;;;;;;;10.70;6.63;;;;;;;14.18;43.69;100544.91;5067910;28;20059;-80
2021/04/18 13:26:35;;;;;;;9.13;6.22;;;;;;;14.28;42.21;100541.13;5072716;28;20067;-79
2021/04/18 13:29:40;;;;;;;7.43;5.40;;;;;;;14.37;40.64;100542.09;5070515;28;20068;-80
2021/04/18 13:32:45;;;;;;;9.63;5.47;;;;;;;14.49;41.84;100537.31;5072570;28;20071;-79
2021/04/18 13:35:50;;;;;;;7.32;5.57;;;;;;;14.71;41.94;100534.13;5068896;28;20066;-78
2021/04/18 13:38:55;;;;;;;7.60;5.68;;;;;;;14.82;40.07;100529.31;5069823;28;20066;-78
2021/04/18 13:41:59;;;;;;;8.10;7.00;;;;;;;15.01;40.22;100530.13;5073437;28;20039;-78
2021/04/18 13:45:05;;;;;;;9.48;7.60;;;;;;;14.99;41.09;100531.13;5072131;28;20059;-77
2021/04/18 13:48:10;;;;;;;8.68;7.53;;;;;;;15.06;41.98;100520.50;5069150;28;20407;-79
2021/04/18 13:51:14;;;;;;;10.40;7.35;;;;;;;15.15;40.53;100516.00;5067307;28;20072;-78
2021/04/18 13:54:19;;;;;;;9.80;8.00;;;;;;;15.08;41.25;100515.81;5071160;28;20051;-80
2021/04/18 13:57:23;;;;;;;9.27;6.68;;;;;;;14.91;40.83;100509.44;5072310;28;20047;-78
2021/04/18 14:00:28;;;;;;;8.48;7.15;;;;;;;14.75;40.88;100513.88;5081492;28;20050;-82
2021/04/18 14:03:32;;;;;;;12.23;7.50;;;;;;;14.66;42.21;100504.88;5094593;28;20047;-79
2021/04/18 14:06:36;;;;;;;9.15;8.10;;;;;;;14.65;41.72;100500.47;5096384;28;20059;-83
2021/04/18 14:09:41;;;;;;;10.52;8.75;;;;;;;14.72;42.21;100511.50;5096485;28;20047;-79
2021/04/18 14:12:47;;;;;;;9.07;8.13;;;;;;;14.69;42.08;100503.72;5094742;28;20043;-80
2021/04/18 14:15:53;;;;;;;9.68;8.63;;;;;;;14.59;42.43;100490.28;5092599;28;20414;-77
2021/04/18 14:18:58;;;;;;;9.95;8.73;;;;;;;14.49;42.00;100494.09;5094186;28;20039;-78
2021/04/18 14:22:02;;;;;;;9.88;7.80;;;;;;;14.50;42.34;100490.38;5093168;28;20051;-79
2021/04/18 14:25:09;;;;;;;11.10;9.02;;;;;;;14.53;42.83;100501.72;5093140;28;20047;-79